• Join FlightAware (Why Join?)
  • Login
  • US Flag 
05:50AM EDT


 

Airport Tracker/Info


-or-


 

Live Flight TrackerFlight Track Log ✈ UAL4236 ✈ 13-Apr-2013 ✈ KELP - KIAH

Flight Track Log - Related Links

Times and Time Zones

All times are in EDT time to prevent confusion due to time zone crossing. See the UAL4236 flight status page for this flight to view local times or setup timezone preferences in your user account.

Time Position Orientation Groundspeed Altitude Reporting Facility
EDT Latitude Longitude Course Direction KTS MPH feet Rate Location/Type
12:28PM 31.7978 -106.3128 95° East 191 220 5,700  Level Albuquerque Center
12:29PM 31.7931 -106.2703 97° East 236 272 7,100 2,280 Climbing Albuquerque Center
12:29PM 31.7889 -106.2186 95° East 247 284 8,100 1,920 Climbing Albuquerque Center
12:30PM 31.7786 -106.1250 97° East 286 329 10,300 1,800 Climbing Albuquerque Center
12:31PM 31.7376 -105.8514 96° East  Level FlightAware Approximate
12:31PM 31.7669 -106.0283 98° East 299 344 11,800  Level Albuquerque Center
12:32PM 31.7222 -105.7221 100° East  Level FlightAware Approximate
12:32PM 31.7553 -105.9192 97° East 333 383 12,900  Level Albuquerque Center
12:33PM 31.7085 -105.5926 96° East  Level FlightAware Approximate
12:33PM 31.7417 -105.8036 98° East 355 409 14,000  Level Albuquerque Center
12:34PM 31.7286 -105.6825 97° East 371 427 15,100 1,020 Climbing Albuquerque Center
12:35PM 31.7125 -105.5608 99° East 377 434 16,200 1,260 Climbing Albuquerque Center
12:36PM 31.6961 -105.4086 97° East 390 449 17,800 1,440 Climbing Albuquerque Center
12:37PM 31.6822 -105.2800 97° East 396 456 19,200 1,260 Climbing Albuquerque Center
12:38PM 31.6658 -105.1517 99° East 396 456 20,500 1,200 Climbing Albuquerque Center
12:40PM 31.6517 -105.0203 97° East 401 461 21,800 1,200 Climbing Albuquerque Center
12:41PM 31.6350 -104.8881 98° East 406 467 23,100 1,200 Climbing Albuquerque Center
12:42PM 31.6197 -104.7558 98° East 408 470 24,400 1,200 Climbing Albuquerque Center
12:43PM 31.6033 -104.6256 98° East 406 467 25,700 1,260 Climbing Albuquerque Center
12:44PM 31.5872 -104.4969 98° East 403 464 27,000 1,260 Climbing Albuquerque Center
12:45PM 31.5683 -104.3436 98° East 399 459 28,400 1,200 Climbing Albuquerque Center
12:46PM 31.5525 -104.2164 98° East 397 457 29,500 1,020 Climbing Albuquerque Center
12:47PM 31.5364 -104.0889 98° East 396 456 30,600 1,020 Climbing Albuquerque Center
12:48PM 31.5200 -103.9617 99° East 395 455 31,700 960 Climbing Albuquerque Center
12:49PM 31.5050 -103.8322 98° East 399 459 32,700 600 Climbing Albuquerque Center
12:50PM 31.4867 -103.7011 99° East 408 470 33,000 420 Climbing Albuquerque Center
12:51PM 31.4658 -103.5308 98° East 434 499 33,600 720 Climbing Albuquerque Center
12:52PM 31.4464 -103.3900 99° East 440 506 34,600 660 Climbing Albuquerque Center
12:53PM 31.4289 -103.2478 98° East 440 506 35,000 180 Climbing Albuquerque Center
12:54PM 31.4111 -103.1006 98° East 453 521 35,000  Level Albuquerque Center
12:55PM 31.3917 -102.9475 98° East 470 541 35,000 -60 Level Albuquerque Center
12:56PM 31.3714 -102.7947 99° East 476 548 34,900  Descending Albuquerque Center
12:57PM 31.3475 -102.6078 98° East 482 555 35,000  Climbing Albuquerque Center
12:58PM 31.3286 -102.4586 98° East 491 565 35,000  Level Albuquerque Center
12:59PM 31.3081 -102.3047 99° East 487 560 35,000  Level Albuquerque Center
01:00PM 31.2892 -102.1558 98° East 472 543 35,000  Level Albuquerque Center
01:01PM 31.2644 -101.9808 99° East 461 531 35,000  Level Albuquerque Center
01:02PM 31.2461 -101.8361 98° East 463 533 35,000  Level Albuquerque Center
01:03PM 31.2244 -101.6833 99° East 474 545 35,000  Level Albuquerque Center
01:04PM 31.2036 -101.5289 99° East 481 554 35,000  Level Houston Center
01:05PM 31.1833 -101.3769 99° East 478 550 35,000  Level Houston Center
01:06PM 31.1617 -101.2250 99° East 468 539 35,000  Level Houston Center
01:07PM 31.1414 -101.0764 99° East 465 535 35,000  Level Houston Center
01:08PM 31.1208 -100.9303 99° East 458 527 35,000  Level Houston Center
01:09PM 31.1006 -100.7831 99° East 458 527 35,000  Level Houston Center
01:10PM 31.0786 -100.6331 100° East 468 539 35,000  Level Houston Center
01:11PM 31.0553 -100.4794 100° East 477 549 35,000  Level Houston Center
01:12PM 31.0289 -100.2914 99° East 489 563 35,000  Level Houston Center
01:13PM 31.0047 -100.1319 100° East 495 570 35,000  Level Houston Center
01:14PM 30.9803 -99.9717 100° East 501 577 35,000  Level Houston Center
01:16PM 30.9561 -99.8128 100° East 497 572 35,000  Level Houston Center
01:17PM 30.9331 -99.6558 100° East 490 564 35,000  Level Houston Center
01:18PM 30.9100 -99.5003 100° East 487 560 35,000  Level Houston Center
01:19PM 30.8844 -99.3433 101° East 491 565 35,000  Level Houston Center
01:20PM 30.8600 -99.1903 101° East 483 556 35,000  Level Houston Center
01:21PM 30.8331 -99.0239 101° East 482 555 35,000  Level Houston Center
01:22PM 30.8083 -98.8686 100° East 484 557 35,000  Level Houston Center
01:23PM 30.7969 -98.6839 94° East 490 564 35,000  Level Houston Center
01:24PM 30.8008 -98.5231 88° East 495 570 35,000 -180 Level Houston Center
01:25PM 30.8053 -98.3642 88° East 490 564 34,700 -840 Descending Houston Center
01:26PM 30.8075 -98.2044 89° East 488 562 33,300 -2,100 Descending Houston Center
01:27PM 30.8108 -98.0503 89° East 477 549 30,400 -2,100 Descending Houston Center
01:28PM 30.8125 -97.8969 89° East 472 543 29,000 -720 Descending Houston Center
01:29PM 30.8150 -97.7419 89° East 475 547 29,000  Level Houston Center
01:30PM 30.8169 -97.5828 89° East 487 560 29,000  Level Houston Center
01:31PM 30.8178 -97.3978 90° East 492 566 29,000  Level Houston Center
01:32PM 30.8003 -97.2414 97° East 494 568 29,000  Level Houston Center
01:33PM 30.7642 -97.0914 106° East 486 559 29,000  Level Houston Center
01:34PM 30.7269 -96.9397 106° East 486 559 29,000 -1,380 Level Houston Center
01:35PM 30.6894 -96.7894 106° East 486 559 26,200 -3,180 Descending Houston Center
01:36PM 30.6511 -96.6439 107° East 474 545 22,500 -3,480 Descending Houston Center
01:37PM 30.6203 -96.5228 106° East 440 506 20,200 -2,820 Descending Houston Center
01:37PM 30.6122 -96.4858 104° East 438 504 19,600 -1,980 Descending Houston Center
01:38PM 30.5889 -96.3978 107° East 412 474 18,200 -2,100 Descending Houston Center
01:38PM 30.5808 -96.3542 102° East 421 484 17,500 -2,220 Descending Houston Center
01:39PM 30.5547 -96.2658 109° East 411 473 16,000 -1,980 Descending Houston Center
01:39PM 30.5472 -96.2261 102° East 413 475 15,500 -1,980 Descending Houston Center
01:40PM 30.5228 -96.1361 107° East 413 475 14,000 -2,160 Descending Houston Center
01:40PM 30.5150 -96.0997 104° East 407 468 13,300 -2,400 Descending Houston Center
01:41PM 30.4917 -96.0161 108° East 369 425 11,600 -2,040 Descending Houston Center
01:41PM 30.4872 -95.9928 102° East 384 442 11,200 -1,560 Descending Houston Center
01:42PM 30.4628 -95.9006 107° East 348 400 10,000 -1,200 Descending Houston Center
01:42PM 30.4519 -95.8664 110° East 340 391 10,000 -540 Level Houston Center
01:43PM 30.4128 -95.8314 142° Southeast 259 298 9,500 -900 Descending Houston Center
01:43PM 30.3903 -95.8214 159° South 270 311 9,100 -1,200 Descending Houston Center
01:44PM 30.3447 -95.7981 156° South 269 310 8,300 -1,260 Descending Houston Center
01:44PM 30.3222 -95.7858 155° Southeast 268 308 7,800 -1,380 Descending Houston Center
01:45PM 30.2744 -95.7628 157° South 260 299 6,900 -1,200 Descending Houston Center
01:45PM 30.2572 -95.7531 154° Southeast 257 296 6,600 -1,320 Descending Houston Center
01:46PM 30.2128 -95.7314 157° South 238 274 5,600 -1,560 Descending Houston Center
01:46PM 30.1964 -95.7225 155° Southeast 241 277 5,000 -1,620 Descending Houston Center
01:47PM 30.1514 -95.7000 157° South 235 270 4,000 -1,020 Descending Houston Center
01:47PM 30.1253 -95.6836 152° Southeast 235 270 4,000 -240 Level Houston Center
01:48PM 30.0917 -95.6658 155° Southeast 233 268 3,800 -600 Descending Houston Center
01:49PM 30.0672 -95.6522 154° Southeast 233 268 3,400 -780 Descending Houston Center
01:49PM 30.0342 -95.6339 154° Southeast 232 267 3,000 -420 Descending Houston Center
01:50PM 30.0103 -95.6206 154° Southeast 230 265 3,000  Level Houston Center
01:50PM 29.9939 -95.5833 117° Southeast 219 252 3,000  Level Houston Center
01:51PM 29.9928 -95.5556 93° East 225 259 3,000 -240 Level Houston Center
01:51PM 29.9919 -95.5136 91° East 217 250 2,800 -720 Descending Houston Center
01:52PM 29.9933 -95.4869 87° East 218 251 2,300 -960 Descending Houston Center